sensor_id;sensor_type;location;lat;lon;timestamp;pressure;altitude;pressure_sealevel;temperature;humidity
79150;BME280;68563;45.644;13.782;2023-04-25T00:01:47;100317.56;;;13.36;56.11
79150;BME280;68563;45.644;13.782;2023-04-25T00:04:12;100321.78;;;13.42;55.63
79150;BME280;68563;45.644;13.782;2023-04-25T00:06:38;100324.44;;;13.40;55.55
79150;BME280;68563;45.644;13.782;2023-04-25T00:09:05;100320.06;;;13.40;55.51
79150;BME280;68563;45.644;13.782;2023-04-25T00:11:33;100320.19;;;13.36;55.67
79150;BME280;68563;45.644;13.782;2023-04-25T00:13:58;100315.81;;;13.38;55.38
79150;BME280;68563;45.644;13.782;2023-04-25T00:16:25;100315.84;;;13.36;55.22
79150;BME280;68563;45.644;13.782;2023-04-25T00:18:50;100313.22;;;13.38;54.79
79150;BME280;68563;45.644;13.782;2023-04-25T00:21:19;100303.78;;;13.34;54.67
79150;BME280;68563;45.644;13.782;2023-04-25T00:23:45;100319.25;;;13.40;54.63
79150;BME280;68563;45.644;13.782;2023-04-25T00:26:11;100321.88;;;13.37;54.99
79150;BME280;68563;45.644;13.782;2023-04-25T00:28:37;100317.56;;;13.36;55.07
79150;BME280;68563;45.644;13.782;2023-04-25T00:31:03;100319.34;;;13.35;55.13
79150;BME280;68563;45.644;13.782;2023-04-25T00:33:28;100317.63;;;13.34;55.07
79150;BME280;68563;45.644;13.782;2023-04-25T00:35:54;100310.84;;;13.30;55.29
79150;BME280;68563;45.644;13.782;2023-04-25T00:38:19;100313.38;;;13.32;55.32
79150;BME280;68563;45.644;13.782;2023-04-25T00:40:45;100313.31;;;13.33;55.82
79150;BME280;68563;45.644;13.782;2023-04-25T00:43:10;100303.03;;;13.30;54.76
79150;BME280;68563;45.644;13.782;2023-04-25T00:45:38;100307.28;;;13.33;54.22
79150;BME280;68563;45.644;13.782;2023-04-25T00:48:04;100311.59;;;13.34;54.32
79150;BME280;68563;45.644;13.782;2023-04-25T00:50:30;100309.00;;;13.34;54.57
79150;BME280;68563;45.644;13.782;2023-04-25T00:52:55;100306.41;;;13.32;55.21
79150;BME280;68563;45.644;13.782;2023-04-25T00:55:21;100312.66;;;13.27;55.59
79150;BME280;68563;45.644;13.782;2023-04-25T00:57:47;100298.16;;;13.19;56.00
79150;BME280;68563;45.644;13.782;2023-04-25T01:00:13;100308.41;;;13.24;55.64
79150;BME280;68563;45.644;13.782;2023-04-25T01:02:40;100307.53;;;13.23;54.69
79150;BME280;68563;45.644;13.782;2023-04-25T01:05:07;100306.72;;;13.23;54.19
79150;BME280;68563;45.644;13.782;2023-04-25T01:07:32;100309.25;;;13.24;54.60
79150;BME280;68563;45.644;13.782;2023-04-25T01:09:58;100323.16;;;13.23;54.99
79150;BME280;68563;45.644;13.782;2023-04-25T01:12:24;100310.09;;;13.25;54.58
79150;BME280;68563;45.644;13.782;2023-04-25T01:14:49;100311.03;;;13.22;53.43
79150;BME280;68563;45.644;13.782;2023-04-25T01:17:15;100307.41;;;13.28;53.02
79150;BME280;68563;45.644;13.782;2023-04-25T01:19:41;100310.91;;;13.27;52.46
79150;BME280;68563;45.644;13.782;2023-04-25T01:22:06;100307.41;;;13.28;52.40
79150;BME280;68563;45.644;13.782;2023-04-25T01:24:32;100301.41;;;13.26;52.76
79150;BME280;68563;45.644;13.782;2023-04-25T01:26:59;100298.78;;;13.28;52.25
79150;BME280;68563;45.644;13.782;2023-04-25T01:29:26;100301.22;;;13.32;52.43
79150;BME280;68563;45.644;13.782;2023-04-25T01:31:52;100298.66;;;13.31;52.86
79150;BME280;68563;45.644;13.782;2023-04-25T01:34:18;100310.16;;;13.23;53.65
79150;BME280;68563;45.644;13.782;2023-04-25T01:36:44;100304.88;;;13.27;53.86
79150;BME280;68563;45.644;13.782;2023-04-25T01:39:09;100305.00;;;13.22;54.22
79150;BME280;68563;45.644;13.782;2023-04-25T01:41:35;100309.19;;;13.28;54.46
79150;BME280;68563;45.644;13.782;2023-04-25T01:44:01;100295.44;;;13.22;55.08
79150;BME280;68563;45.644;13.782;2023-04-25T01:46:27;100307.34;;;13.31;54.88
79150;BME280;68563;45.644;13.782;2023-04-25T01:48:52;100301.38;;;13.28;52.86
79150;BME280;68563;45.644;13.782;2023-04-25T01:51:18;100305.66;;;13.29;53.27
79150;BME280;68563;45.644;13.782;2023-04-25T01:53:44;100302.47;;;13.20;52.92
79150;BME280;68563;45.644;13.782;2023-04-25T01:56:09;100303.97;;;13.28;53.43
79150;BME280;68563;45.644;13.782;2023-04-25T01:58:35;100300.94;;;13.13;53.98
79150;BME280;68563;45.644;13.782;2023-04-25T02:01:00;100300.13;;;13.11;54.16
79150;BME280;68563;45.644;13.782;2023-04-25T02:03:26;100295.00;;;13.08;53.95
79150;BME280;68563;45.644;13.782;2023-04-25T02:05:51;100295.81;;;13.10;53.02
79150;BME280;68563;45.644;13.782;2023-04-25T02:08:17;100293.31;;;13.07;53.61
79150;BME280;68563;45.644;13.782;2023-04-25T02:10:43;100302.91;;;13.05;54.36
79150;BME280;68563;45.644;13.782;2023-04-25T02:13:08;100300.38;;;13.02;55.21
79150;BME280;68563;45.644;13.782;2023-04-25T02:15:34;100305.41;;;13.08;54.71
79150;BME280;68563;45.644;13.782;2023-04-25T02:17:59;100296.69;;;13.09;53.36
79150;BME280;68563;45.644;13.782;2023-04-25T02:20:25;100290.75;;;13.05;51.85
79150;BME280;68563;45.644;13.782;2023-04-25T02:22:51;100296.06;;;13.01;52.68
79150;BME280;68563;45.644;13.782;2023-04-25T02:25:18;100295.31;;;12.97;53.60
79150;BME280;68563;45.644;13.782;2023-04-25T02:27:45;100299.59;;;13.00;54.24
79150;BME280;68563;45.644;13.782;2023-04-25T02:30:11;100288.44;;;12.95;54.42
79150;BME280;68563;45.644;13.782;2023-04-25T02:32:37;100281.41;;;12.98;53.61
79150;BME280;68563;45.644;13.782;2023-04-25T02:35:03;100290.22;;;12.94;53.15
79150;BME280;68563;45.644;13.782;2023-04-25T02:37:33;100283.31;;;12.93;54.32
79150;BME280;68563;45.644;13.782;2023-04-25T02:39:59;100275.44;;;12.95;54.14
79150;BME280;68563;45.644;13.782;2023-04-25T02:42:24;100292.69;;;12.99;54.54
79150;BME280;68563;45.644;13.782;2023-04-25T02:44:50;100279.00;;;12.92;54.16
79150;BME280;68563;45.644;13.782;2023-04-25T02:47:15;100275.63;;;12.88;54.10
79150;BME280;68563;45.644;13.782;2023-04-25T02:49:41;100286.63;;;12.98;53.80
79150;BME280;68563;45.644;13.782;2023-04-25T02:52:06;100284.91;;;12.97;53.45
79150;BME280;68563;45.644;13.782;2023-04-25T02:54:32;100293.75;;;12.91;53.18
79150;BME280;68563;45.644;13.782;2023-04-25T02:56:57;100293.81;;;12.90;53.26
79150;BME280;68563;45.644;13.782;2023-04-25T02:59:23;100290.28;;;12.91;53.90
79150;BME280;68563;45.644;13.782;2023-04-25T03:01:48;100284.25;;;12.90;54.31
79150;BME280;68563;45.644;13.782;2023-04-25T03:04:14;100286.94;;;12.87;54.62
79150;BME280;68563;45.644;13.782;2023-04-25T03:06:39;100289.53;;;12.87;54.95
79150;BME280;68563;45.644;13.782;2023-04-25T03:09:05;100282.78;;;12.80;54.03
79150;BME280;68563;45.644;13.782;2023-04-25T03:11:30;100301.72;;;12.85;54.84
79150;BME280;68563;45.644;13.782;2023-04-25T03:13:55;100296.47;;;12.87;55.16
79150;BME280;68563;45.644;13.782;2023-04-25T03:16:21;100299.78;;;12.93;53.19
79150;BME280;68563;45.644;13.782;2023-04-25T03:18:47;100301.81;;;12.82;53.75
79150;BME280;68563;45.644;13.782;2023-04-25T03:21:12;100292.28;;;12.83;53.91
79150;BME280;68563;45.644;13.782;2023-04-25T03:23:37;100288.09;;;12.77;52.93
79150;BME280;68563;45.644;13.782;2023-04-25T03:26:03;100278.94;;;12.64;53.04
79150;BME280;68563;45.644;13.782;2023-04-25T03:28:29;100284.97;;;12.66;53.50
79150;BME280;68563;45.644;13.782;2023-04-25T03:30:54;100283.16;;;12.68;53.63
79150;BME280;68563;45.644;13.782;2023-04-25T03:33:19;100283.31;;;12.61;53.80
79150;BME280;68563;45.644;13.782;2023-04-25T03:35:45;100279.00;;;12.60;54.44
79150;BME280;68563;45.644;13.782;2023-04-25T03:38:10;100287.69;;;12.61;54.28
79150;BME280;68563;45.644;13.782;2023-04-25T03:40:36;100291.84;;;12.67;54.51
79150;BME280;68563;45.644;13.782;2023-04-25T03:43:01;100283.41;;;12.58;55.26
79150;BME280;68563;45.644;13.782;2023-04-25T03:45:26;100290.34;;;12.58;54.00
79150;BME280;68563;45.644;13.782;2023-04-25T03:47:52;100293.00;;;12.56;53.68
79150;BME280;68563;45.644;13.782;2023-04-25T03:50:17;100286.25;;;12.49;54.05
79150;BME280;68563;45.644;13.782;2023-04-25T03:52:43;100290.03;;;12.37;54.33
79150;BME280;68563;45.644;13.782;2023-04-25T03:55:09;100294.63;;;12.27;54.89
79150;BME280;68563;45.644;13.782;2023-04-25T03:57:34;100286.16;;;12.19;55.52
79150;BME280;68563;45.644;13.782;2023-04-25T04:00:00;100286.88;;;12.24;55.86
79150;BME280;68563;45.644;13.782;2023-04-25T04:02:25;100289.59;;;12.21;55.73
79150;BME280;68563;45.644;13.782;2023-04-25T04:04:50;100288.69;;;12.22;55.81
79150;BME280;68563;45.644;13.782;2023-04-25T04:07:16;100285.44;;;12.14;55.27
79150;BME280;68563;45.644;13.782;2023-04-25T04:09:41;100283.06;;;12.06;55.53
79150;BME280;68563;45.644;13.782;2023-04-25T04:12:07;100271.06;;;12.01;55.54
79150;BME280;68563;45.644;13.782;2023-04-25T04:14:32;100275.66;;;11.89;56.12
79150;BME280;68563;45.644;13.782;2023-04-25T04:16:58;100262.69;;;11.89;56.06
79150;BME280;68563;45.644;13.782;2023-04-25T04:19:23;100274.75;;;11.90;56.44
79150;BME280;68563;45.644;13.782;2023-04-25T04:21:48;100268.53;;;11.97;55.96
79150;BME280;68563;45.644;13.782;2023-04-25T04:24:14;100271.97;;;12.00;55.77
79150;BME280;68563;45.644;13.782;2023-04-25T04:26:42;100271.75;;;12.07;54.76
79150;BME280;68563;45.644;13.782;2023-04-25T04:29:10;100274.16;;;12.15;54.84
79150;BME280;68563;45.644;13.782;2023-04-25T04:31:35;100268.97;;;12.15;54.64
79150;BME280;68563;45.644;13.782;2023-04-25T04:34:01;100265.34;;;12.21;52.59
79150;BME280;68563;45.644;13.782;2023-04-25T04:36:27;100277.22;;;12.31;52.98
79150;BME280;68563;45.644;13.782;2023-04-25T04:38:52;100276.22;;;12.37;52.66
79150;BME280;68563;45.644;13.782;2023-04-25T04:41:19;100271.63;;;12.45;54.91
79150;BME280;68563;45.644;13.782;2023-04-25T04:43:44;100262.47;;;12.63;54.96
79150;BME280;68563;45.644;13.782;2023-04-25T04:46:10;100284.97;;;12.96;52.92
79150;BME280;68563;45.644;13.782;2023-04-25T04:48:35;100281.03;;;13.12;52.58
79150;BME280;68563;45.644;13.782;2023-04-25T04:51:01;100286.41;;;13.34;53.07
79150;BME280;68563;45.644;13.782;2023-04-25T04:53:27;100284.84;;;13.59;52.61
79150;BME280;68563;45.644;13.782;2023-04-25T04:55:52;100277.56;;;13.70;51.95
79150;BME280;68563;45.644;13.782;2023-04-25T04:58:18;100285.66;;;13.87;51.12
79150;BME280;68563;45.644;13.782;2023-04-25T05:00:44;100284.41;;;13.99;50.14
79150;BME280;68563;45.644;13.782;2023-04-25T05:03:10;100287.69;;;14.04;50.02
79150;BME280;68563;45.644;13.782;2023-04-25T05:05:36;100290.84;;;14.14;49.71
79150;BME280;68563;45.644;13.782;2023-04-25T05:08:05;100273.22;;;14.23;49.35
79150;BME280;68563;45.644;13.782;2023-04-25T05:10:31;100276.41;;;14.31;49.24
79150;BME280;68563;45.644;13.782;2023-04-25T05:12:56;100272.69;;;14.38;49.31
79150;BME280;68563;45.644;13.782;2023-04-25T05:15:21;100270.66;;;14.46;48.64
79150;BME280;68563;45.644;13.782;2023-04-25T05:17:47;100254.28;;;14.43;49.16
79150;BME280;68563;45.644;13.782;2023-04-25T05:20:12;100245.28;;;14.51;48.35
79150;BME280;68563;45.644;13.782;2023-04-25T05:22:39;100251.41;;;14.50;48.88
79150;BME280;68563;45.644;13.782;2023-04-25T05:25:07;100255.03;;;14.46;48.66
79150;BME280;68563;45.644;13.782;2023-04-25T05:27:32;100253.09;;;14.51;48.57
79150;BME280;68563;45.644;13.782;2023-04-25T05:29:58;100260.09;;;14.75;49.33
79150;BME280;68563;45.644;13.782;2023-04-25T05:32:23;100252.22;;;14.76;48.94
79150;BME280;68563;45.644;13.782;2023-04-25T05:34:50;100256.25;;;14.85;49.10
79150;BME280;68563;45.644;13.782;2023-04-25T05:37:16;100253.47;;;14.90;48.22
79150;BME280;68563;45.644;13.782;2023-04-25T05:39:42;100248.09;;;14.94;47.61
79150;BME280;68563;45.644;13.782;2023-04-25T05:42:07;100249.16;;;14.89;47.11
79150;BME280;68563;45.644;13.782;2023-04-25T05:44:32;100242.59;;;14.78;46.79
79150;BME280;68563;45.644;13.782;2023-04-25T05:46:58;100230.75;;;14.70;46.68
79150;BME280;68563;45.644;13.782;2023-04-25T05:49:23;100234.94;;;14.74;46.33
79150;BME280;68563;45.644;13.782;2023-04-25T05:51:48;100238.78;;;14.87;46.63
79150;BME280;68563;45.644;13.782;2023-04-25T05:54:14;100242.03;;;14.94;46.61
79150;BME280;68563;45.644;13.782;2023-04-25T05:56:39;100233.97;;;15.00;46.11
79150;BME280;68563;45.644;13.782;2023-04-25T05:59:05;100231.47;;;14.97;46.66
79150;BME280;68563;45.644;13.782;2023-04-25T06:01:31;100243.53;;;14.99;45.36
79150;BME280;68563;45.644;13.782;2023-04-25T06:03:56;100231.13;;;15.06;45.90
79150;BME280;68563;45.644;13.782;2023-04-25T06:06:21;100235.44;;;15.07;45.83
79150;BME280;68563;45.644;13.782;2023-04-25T06:08:47;100232.03;;;15.05;45.65
79150;BME280;68563;45.644;13.782;2023-04-25T06:11:12;100232.75;;;15.09;46.18
79150;BME280;68563;45.644;13.782;2023-04-25T06:13:38;100238.81;;;15.09;46.62
79150;BME280;68563;45.644;13.782;2023-04-25T06:16:03;100231.63;;;15.16;49.23
79150;BME280;68563;45.644;13.782;2023-04-25T06:18:29;100239.94;;;15.26;49.11
79150;BME280;68563;45.644;13.782;2023-04-25T06:20:55;100241.72;;;15.24;47.16
79150;BME280;68563;45.644;13.782;2023-04-25T06:23:20;100234.78;;;15.24;48.81
79150;BME280;68563;45.644;13.782;2023-04-25T06:25:46;100238.34;;;15.22;46.91
79150;BME280;68563;45.644;13.782;2023-04-25T06:28:11;100245.38;;;15.20;46.72
79150;BME280;68563;45.644;13.782;2023-04-25T06:30:37;100251.75;;;15.12;46.85
79150;BME280;68563;45.644;13.782;2023-04-25T06:33:02;100255.50;;;15.05;48.38
79150;BME280;68563;45.644;13.782;2023-04-25T06:35:28;100258.09;;;15.05;46.60
79150;BME280;68563;45.644;13.782;2023-04-25T06:37:53;100268.66;;;15.02;46.18
79150;BME280;68563;45.644;13.782;2023-04-25T06:40:18;100270.34;;;15.03;45.52
79150;BME280;68563;45.644;13.782;2023-04-25T06:42:44;100269.97;;;14.90;45.08
79150;BME280;68563;45.644;13.782;2023-04-25T06:45:09;100271.03;;;14.84;45.61
79150;BME280;68563;45.644;13.782;2023-04-25T06:47:35;100270.88;;;14.89;44.24
79150;BME280;68563;45.644;13.782;2023-04-25T06:50:00;100281.91;;;14.96;44.80
79150;BME280;68563;45.644;13.782;2023-04-25T06:52:26;100285.38;;;14.96;44.34
79150;BME280;68563;45.644;13.782;2023-04-25T06:54:51;100289.72;;;14.96;44.61
79150;BME280;68563;45.644;13.782;2023-04-25T06:57:16;100295.97;;;14.92;44.86
79150;BME280;68563;45.644;13.782;2023-04-25T06:59:42;100297.13;;;14.84;45.68
79150;BME280;68563;45.644;13.782;2023-04-25T07:02:07;100329.72;;;14.96;46.40
79150;BME280;68563;45.644;13.782;2023-04-25T07:04:32;100334.25;;;14.91;50.31
79150;BME280;68563;45.644;13.782;2023-04-25T07:06:58;100343.41;;;14.78;53.20
79150;BME280;68563;45.644;13.782;2023-04-25T07:09:25;100342.78;;;14.71;54.07
79150;BME280;68563;45.644;13.782;2023-04-25T07:11:51;100350.59;;;14.71;54.88
79150;BME280;68563;45.644;13.782;2023-04-25T07:14:16;100364.44;;;14.73;56.23
79150;BME280;68563;45.644;13.782;2023-04-25T07:16:42;100348.19;;;14.65;55.68
79150;BME280;68563;45.644;13.782;2023-04-25T07:19:07;100366.47;;;14.63;58.51
79150;BME280;68563;45.644;13.782;2023-04-25T07:21:32;100372.47;;;14.67;58.71
79150;BME280;68563;45.644;13.782;2023-04-25T07:23:58;100370.06;;;14.59;59.53
79150;BME280;68563;45.644;13.782;2023-04-25T07:26:23;100363.22;;;14.57;59.50
79150;BME280;68563;45.644;13.782;2023-04-25T07:28:49;100379.41;;;14.66;58.96
79150;BME280;68563;45.644;13.782;2023-04-25T07:31:17;100372.47;;;14.67;58.30
79150;BME280;68563;45.644;13.782;2023-04-25T07:33:46;100373.38;;;14.64;58.34
79150;BME280;68563;45.644;13.782;2023-04-25T07:36:12;100368.16;;;14.66;58.24
79150;BME280;68563;45.644;13.782;2023-04-25T07:38:38;100363.00;;;14.63;57.58
79150;BME280;68563;45.644;13.782;2023-04-25T07:41:04;100368.75;;;14.74;59.14
79150;BME280;68563;45.644;13.782;2023-04-25T07:43:29;100367.78;;;14.77;57.21
79150;BME280;68563;45.644;13.782;2023-04-25T07:45:56;100361.81;;;14.73;57.53
79150;BME280;68563;45.644;13.782;2023-04-25T07:48:21;100374.06;;;14.71;57.59
79150;BME280;68563;45.644;13.782;2023-04-25T07:50:47;100368.16;;;14.64;58.25
79150;BME280;68563;45.644;13.782;2023-04-25T07:53:12;100368.09;;;14.67;58.98
79150;BME280;68563;45.644;13.782;2023-04-25T07:55:38;100371.53;;;14.68;59.09
79150;BME280;68563;45.644;13.782;2023-04-25T07:58:06;100351.03;;;14.57;59.11
79150;BME280;68563;45.644;13.782;2023-04-25T08:00:31;100371.59;;;14.66;59.61
79150;BME280;68563;45.644;13.782;2023-04-25T08:02:57;100373.31;;;14.67;59.75
79150;BME280;68563;45.644;13.782;2023-04-25T08:05:22;100370.75;;;14.66;60.15
79150;BME280;68563;45.644;13.782;2023-04-25T08:07:47;100376.94;;;14.62;60.80
79150;BME280;68563;45.644;13.782;2023-04-25T08:10:13;100382.97;;;14.64;61.91
79150;BME280;68563;45.644;13.782;2023-04-25T08:12:38;100381.47;;;14.57;62.25
79150;BME280;68563;45.644;13.782;2023-04-25T08:15:05;100382.56;;;14.49;62.27
79150;BME280;68563;45.644;13.782;2023-04-25T08:17:31;100395.50;;;14.52;62.12
79150;BME280;68563;45.644;13.782;2023-04-25T08:19:56;100397.38;;;14.49;62.27
79150;BME280;68563;45.644;13.782;2023-04-25T08:22:22;100412.94;;;14.50;62.27
79150;BME280;68563;45.644;13.782;2023-04-25T08:24:47;100417.41;;;14.47;62.18
79150;BME280;68563;45.644;13.782;2023-04-25T08:27:13;100415.84;;;14.41;62.35
79150;BME280;68563;45.644;13.782;2023-04-25T08:29:38;100411.59;;;14.39;62.06
79150;BME280;68563;45.644;13.782;2023-04-25T08:32:04;100412.84;;;14.27;62.37
79150;BME280;68563;45.644;13.782;2023-04-25T08:34:29;100416.94;;;14.34;62.76
79150;BME280;68563;45.644;13.782;2023-04-25T08:36:55;100416.84;;;14.37;62.60
79150;BME280;68563;45.644;13.782;2023-04-25T08:39:20;100416.91;;;14.35;62.74
79150;BME280;68563;45.644;13.782;2023-04-25T08:41:46;100423.78;;;14.38;62.70
79150;BME280;68563;45.644;13.782;2023-04-25T08:44:11;100427.28;;;14.37;62.79
79150;BME280;68563;45.644;13.782;2023-04-25T08:46:40;100419.75;;;14.28;63.02
79150;BME280;68563;45.644;13.782;2023-04-25T08:49:06;100430.69;;;14.39;62.73
79150;BME280;68563;45.644;13.782;2023-04-25T08:51:32;100416.31;;;14.27;62.67
79150;BME280;68563;45.644;13.782;2023-04-25T08:56:33;100433.28;;;14.39;62.66
79150;BME280;68563;45.644;13.782;2023-04-25T08:59:01;100436.00;;;14.36;62.77
79150;BME280;68563;45.644;13.782;2023-04-25T09:01:27;100441.41;;;14.30;62.46
79150;BME280;68563;45.644;13.782;2023-04-25T09:03:53;100436.19;;;14.30;62.79
79150;BME280;68563;45.644;13.782;2023-04-25T09:06:19;100434.34;;;14.33;62.46
79150;BME280;68563;45.644;13.782;2023-04-25T09:08:44;100437.94;;;14.29;62.91
79150;BME280;68563;45.644;13.782;2023-04-25T09:11:09;100438.84;;;14.28;63.10
79150;BME280;68563;45.644;13.782;2023-04-25T09:13:35;100437.38;;;14.19;63.36
79150;BME280;68563;45.644;13.782;2023-04-25T09:16:01;100438.09;;;14.25;63.67
79150;BME280;68563;45.644;13.782;2023-04-25T09:18:31;100433.09;;;14.18;63.70
79150;BME280;68563;45.644;13.782;2023-04-25T09:21:10;100439.94;;;14.21;63.72
79150;BME280;68563;45.644;13.782;2023-04-25T09:23:54;100430.50;;;14.17;63.48
79150;BME280;68563;45.644;13.782;2023-04-25T09:26:20;100438.38;;;14.15;63.51
79150;BME280;68563;45.644;13.782;2023-04-25T09:28:46;100439.97;;;14.19;63.47
79150;BME280;68563;45.644;13.782;2023-04-25T09:31:24;100440.16;;;14.13;63.56
79150;BME280;68563;45.644;13.782;2023-04-25T09:33:49;100447.09;;;14.14;63.31
79150;BME280;68563;45.644;13.782;2023-04-25T09:36:15;100454.00;;;14.15;63.16
79150;BME280;68563;45.644;13.782;2023-04-25T09:38:42;100448.03;;;14.12;62.84
79150;BME280;68563;45.644;13.782;2023-04-25T09:41:09;100440.38;;;14.07;62.73
79150;BME280;68563;45.644;13.782;2023-04-25T09:43:35;100445.50;;;14.10;62.66
79150;BME280;68563;45.644;13.782;2023-04-25T09:46:01;100442.97;;;14.07;62.42
79150;BME280;68563;45.644;13.782;2023-04-25T09:48:28;100452.50;;;14.08;62.85
79150;BME280;68563;45.644;13.782;2023-04-25T09:53:29;100450.69;;;14.10;62.93
79150;BME280;68563;45.644;13.782;2023-04-25T09:55:59;100442.06;;;14.08;63.02
79150;BME280;68563;45.644;13.782;2023-04-25T09:58:25;100447.97;;;14.13;63.16
79150;BME280;68563;45.644;13.782;2023-04-25T10:00:58;100461.00;;;14.13;62.61
79150;BME280;68563;45.644;13.782;2023-04-25T10:03:25;100448.88;;;14.12;63.00
79150;BME280;68563;45.644;13.782;2023-04-25T10:05:51;100443.66;;;14.14;61.87
79150;BME280;68563;45.644;13.782;2023-04-25T10:08:18;100440.22;;;14.12;62.05
79150;BME280;68563;45.644;13.782;2023-04-25T10:10:46;100434.41;;;14.03;62.42
79150;BME280;68563;45.644;13.782;2023-04-25T10:13:12;100434.47;;;14.02;62.80
79150;BME280;68563;45.644;13.782;2023-04-25T10:15:40;100431.19;;;13.95;62.77
79150;BME280;68563;45.644;13.782;2023-04-25T10:18:06;100431.94;;;13.99;62.10
79150;BME280;68563;45.644;13.782;2023-04-25T10:20:32;100428.34;;;14.03;61.88
79150;BME280;68563;45.644;13.782;2023-04-25T10:23:06;100412.72;;;14.03;61.95
79150;BME280;68563;45.644;13.782;2023-04-25T10:25:33;100406.63;;;14.04;61.50
79150;BME280;68563;45.644;13.782;2023-04-25T10:27:59;100406.63;;;14.04;62.13
79150;BME280;68563;45.644;13.782;2023-04-25T10:30:25;100402.13;;;14.09;61.63
79150;BME280;68563;45.644;13.782;2023-04-25T10:32:54;100407.28;;;14.11;61.45
79150;BME280;68563;45.644;13.782;2023-04-25T10:35:28;100397.66;;;14.13;61.01
79150;BME280;68563;45.644;13.782;2023-04-25T10:38:03;100386.50;;;14.09;60.79
79150;BME280;68563;45.644;13.782;2023-04-25T10:40:33;100401.25;;;14.09;60.12
79150;BME280;68563;45.644;13.782;2023-04-25T10:45:55;100412.41;;;14.14;60.17
79150;BME280;68563;45.644;13.782;2023-04-25T10:48:27;100403.09;;;14.05;59.86
79150;BME280;68563;45.644;13.782;2023-04-25T10:51:15;100394.38;;;14.08;59.84
79150;BME280;68563;45.644;13.782;2023-04-25T10:53:41;100391.72;;;14.09;60.03
79150;BME280;68563;45.644;13.782;2023-04-25T10:56:19;100398.50;;;14.13;59.80
79150;BME280;68563;45.644;13.782;2023-04-25T10:58:45;100397.88;;;14.07;59.35
79150;BME280;68563;45.644;13.782;2023-04-25T11:01:15;100392.00;;;14.00;60.00
79150;BME280;68563;45.644;13.782;2023-04-25T11:03:45;100388.44;;;14.02;59.80
79150;BME280;68563;45.644;13.782;2023-04-25T11:06:23;100384.09;;;14.03;59.70
79150;BME280;68563;45.644;13.782;2023-04-25T11:08:52;100376.09;;;14.09;59.75
79150;BME280;68563;45.644;13.782;2023-04-25T11:11:18;100372.59;;;14.10;59.67
79150;BME280;68563;45.644;13.782;2023-04-25T11:13:44;100365.66;;;14.09;59.09
79150;BME280;68563;45.644;13.782;2023-04-25T11:16:10;100379.25;;;14.19;59.18
79150;BME280;68563;45.644;13.782;2023-04-25T11:18:35;100384.50;;;14.17;59.13
79150;BME280;68563;45.644;13.782;2023-04-25T11:21:02;100383.84;;;14.11;59.79
79150;BME280;68563;45.644;13.782;2023-04-25T11:23:29;100396.03;;;14.10;59.73
79150;BME280;68563;45.644;13.782;2023-04-25T11:25:55;100392.28;;;13.91;60.61
79150;BME280;68563;45.644;13.782;2023-04-25T11:28:21;100397.50;;;13.91;60.77
79150;BME280;68563;45.644;13.782;2023-04-25T11:30:50;100394.97;;;13.87;60.75
79150;BME280;68563;45.644;13.782;2023-04-25T11:33:16;100397.38;;;13.94;60.57
79150;BME280;68563;45.644;13.782;2023-04-25T11:35:41;100397.31;;;13.97;60.31
79150;BME280;68563;45.644;13.782;2023-04-25T11:38:07;100386.03;;;13.96;59.99
79150;BME280;68563;45.644;13.782;2023-04-25T11:40:32;100389.31;;;14.01;60.10
79150;BME280;68563;45.644;13.782;2023-04-25T11:43:00;100383.53;;;13.93;60.38
79150;BME280;68563;45.644;13.782;2023-04-25T11:45:26;100391.94;;;14.01;60.62
79150;BME280;68563;45.644;13.782;2023-04-25T11:47:52;100381.50;;;14.01;60.55
79150;BME280;68563;45.644;13.782;2023-04-25T11:50:18;100384.88;;;14.05;60.67
79150;BME280;68563;45.644;13.782;2023-04-25T11:52:47;100380.59;;;14.04;60.18
79150;BME280;68563;45.644;13.782;2023-04-25T11:55:14;100379.78;;;14.02;60.51
79150;BME280;68563;45.644;13.782;2023-04-25T11:57:41;100383.41;;;13.98;60.04
79150;BME280;68563;45.644;13.782;2023-04-25T12:00:11;100383.22;;;14.02;60.29
79150;BME280;68563;45.644;13.782;2023-04-25T12:02:51;100382.59;;;13.96;60.66
79150;BME280;68563;45.644;13.782;2023-04-25T12:05:16;100385.13;;;13.97;60.20
79150;BME280;68563;45.644;13.782;2023-04-25T12:07:42;100387.69;;;13.99;59.71
79150;BME280;68563;45.644;13.782;2023-04-25T12:10:09;100385.88;;;14.01;59.28
79150;BME280;68563;45.644;13.782;2023-04-25T12:12:36;100386.78;;;14.00;59.38
79150;BME280;68563;45.644;13.782;2023-04-25T12:15:19;100376.56;;;13.94;59.49
79150;BME280;68563;45.644;13.782;2023-04-25T12:17:50;100371.34;;;13.94;59.46
79150;BME280;68563;45.644;13.782;2023-04-25T12:20:18;100357.59;;;13.90;60.49
79150;BME280;68563;45.644;13.782;2023-04-25T12:22:46;100367.03;;;13.94;60.49
79150;BME280;68563;45.644;13.782;2023-04-25T12:25:13;100367.03;;;13.93;60.60
79150;BME280;68563;45.644;13.782;2023-04-25T12:27:39;100354.94;;;13.92;61.11
79150;BME280;68563;45.644;13.782;2023-04-25T12:30:07;100351.41;;;13.94;61.21
79150;BME280;68563;45.644;13.782;2023-04-25T12:32:33;100343.63;;;13.93;61.29
79150;BME280;68563;45.644;13.782;2023-04-25T12:34:59;100333.97;;;13.96;61.12
79150;BME280;68563;45.644;13.782;2023-04-25T12:37:24;100331.47;;;13.93;61.28
79150;BME280;68563;45.644;13.782;2023-04-25T12:39:49;100321.09;;;13.92;61.35
79150;BME280;68563;45.644;13.782;2023-04-25T12:42:15;100330.53;;;13.96;61.58
79150;BME280;68563;45.644;13.782;2023-04-25T12:44:41;100326.06;;;13.99;61.26